sensor_id;sensor_type;location;lat;lon;timestamp;pressure;altitude;pressure_sealevel;temperature;humidity
46714;BME280;32445;51.376;10.874;2023-05-16T00:00:49;99020.28;;;15.37;48.54
46714;BME280;32445;51.376;10.874;2023-05-16T00:03:52;99030.09;;;15.33;48.47
46714;BME280;32445;51.376;10.874;2023-05-16T00:06:52;99022.63;;;15.26;48.65
46714;BME280;32445;51.376;10.874;2023-05-16T00:09:52;99019.50;;;15.19;48.40
46714;BME280;32445;51.376;10.874;2023-05-16T00:12:52;99024.13;;;15.14;48.77
46714;BME280;32445;51.376;10.874;2023-05-16T00:15:53;99019.31;;;15.06;49.26
46714;BME280;32445;51.376;10.874;2023-05-16T00:18:55;99030.06;;;15.00;49.84
46714;BME280;32445;51.376;10.874;2023-05-16T00:21:56;99028.09;;;14.87;50.04
46714;BME280;32445;51.376;10.874;2023-05-16T00:24:56;99018.91;;;14.80;50.37
46714;BME280;32445;51.376;10.874;2023-05-16T00:27:57;99031.16;;;14.61;51.94
46714;BME280;32445;51.376;10.874;2023-05-16T00:30:57;99030.03;;;14.49;51.82
46714;BME280;32445;51.376;10.874;2023-05-16T00:33:58;99025.38;;;14.36;52.76
46714;BME280;32445;51.376;10.874;2023-05-16T00:36:58;99030.00;;;14.31;53.14
46714;BME280;32445;51.376;10.874;2023-05-16T00:39:58;99041.72;;;14.23;53.93
46714;BME280;32445;51.376;10.874;2023-05-16T00:42:59;99043.72;;;14.17;53.89
46714;BME280;32445;51.376;10.874;2023-05-16T00:45:59;99047.47;;;14.12;54.13
46714;BME280;32445;51.376;10.874;2023-05-16T00:49:00;99042.94;;;14.15;53.77
46714;BME280;32445;51.376;10.874;2023-05-16T00:52:00;99045.56;;;14.15;54.03
46714;BME280;32445;51.376;10.874;2023-05-16T00:55:02;99041.44;;;14.11;54.12
46714;BME280;32445;51.376;10.874;2023-05-16T00:58:04;99046.56;;;14.13;53.99
46714;BME280;32445;51.376;10.874;2023-05-16T01:01:05;99042.41;;;14.09;54.42
46714;BME280;32445;51.376;10.874;2023-05-16T01:04:06;99052.13;;;14.05;54.46
46714;BME280;32445;51.376;10.874;2023-05-16T01:07:07;99045.38;;;14.01;54.36
46714;BME280;32445;51.376;10.874;2023-05-16T01:10:08;99045.44;;;13.99;54.69
46714;BME280;32445;51.376;10.874;2023-05-16T01:16:15;99049.97;;;13.96;54.55
46714;BME280;32445;51.376;10.874;2023-05-16T01:19:28;99054.56;;;13.91;54.30
46714;BME280;32445;51.376;10.874;2023-05-16T01:22:47;99073.72;;;13.90;54.21
46714;BME280;32445;51.376;10.874;2023-05-16T01:29:11;99079.03;;;13.88;53.58
46714;BME280;32445;51.376;10.874;2023-05-16T01:32:11;99072.13;;;13.87;53.46
46714;BME280;32445;51.376;10.874;2023-05-16T01:35:14;99068.31;;;13.94;52.91
46714;BME280;32445;51.376;10.874;2023-05-16T01:38:25;99066.25;;;14.01;52.00
46714;BME280;32445;51.376;10.874;2023-05-16T01:44:59;99075.50;;;13.89;52.62
46714;BME280;32445;51.376;10.874;2023-05-16T01:48:14;99085.19;;;13.87;52.25
46714;BME280;32445;51.376;10.874;2023-05-16T01:51:15;99079.09;;;13.87;51.83
46714;BME280;32445;51.376;10.874;2023-05-16T01:54:18;99078.34;;;13.84;51.58
46714;BME280;32445;51.376;10.874;2023-05-16T01:57:21;99086.31;;;13.81;51.35
46714;BME280;32445;51.376;10.874;2023-05-16T02:00:23;99092.34;;;13.82;51.47
46714;BME280;32445;51.376;10.874;2023-05-16T02:03:23;99101.09;;;13.81;51.12
46714;BME280;32445;51.376;10.874;2023-05-16T02:06:24;99098.69;;;13.76;51.25
46714;BME280;32445;51.376;10.874;2023-05-16T02:09:25;99103.28;;;13.71;51.07
46714;BME280;32445;51.376;10.874;2023-05-16T02:12:25;99097.56;;;13.63;51.35
46714;BME280;32445;51.376;10.874;2023-05-16T02:15:26;99101.63;;;13.49;51.82
46714;BME280;32445;51.376;10.874;2023-05-16T02:18:26;99107.84;;;13.47;51.60
46714;BME280;32445;51.376;10.874;2023-05-16T02:21:27;99108.09;;;13.41;51.89
46714;BME280;32445;51.376;10.874;2023-05-16T02:24:27;99109.22;;;13.35;51.72
46714;BME280;32445;51.376;10.874;2023-05-16T02:27:28;99111.47;;;13.22;52.17
46714;BME280;32445;51.376;10.874;2023-05-16T02:30:28;99114.50;;;13.13;52.14
46714;BME280;32445;51.376;10.874;2023-05-16T02:33:29;99121.78;;;13.05;52.66
46714;BME280;32445;51.376;10.874;2023-05-16T02:36:29;99117.59;;;13.01;52.38
46714;BME280;32445;51.376;10.874;2023-05-16T02:39:29;99125.25;;;13.05;52.16
46714;BME280;32445;51.376;10.874;2023-05-16T02:42:31;99127.41;;;12.95;52.46
46714;BME280;32445;51.376;10.874;2023-05-16T02:45:32;99132.97;;;12.86;52.86
46714;BME280;32445;51.376;10.874;2023-05-16T02:48:32;99137.84;;;12.73;53.04
46714;BME280;32445;51.376;10.874;2023-05-16T02:51:32;99146.81;;;12.66;53.30
46714;BME280;32445;51.376;10.874;2023-05-16T02:54:33;99146.94;;;12.63;52.97
46714;BME280;32445;51.376;10.874;2023-05-16T02:57:33;99144.81;;;12.51;54.13
46714;BME280;32445;51.376;10.874;2023-05-16T03:00:33;99141.84;;;12.38;54.49
46714;BME280;32445;51.376;10.874;2023-05-16T03:03:35;99143.94;;;12.29;54.97
46714;BME280;32445;51.376;10.874;2023-05-16T03:06:36;99146.03;;;12.20;55.22
46714;BME280;32445;51.376;10.874;2023-05-16T03:09:36;99141.09;;;12.12;55.52
46714;BME280;32445;51.376;10.874;2023-05-16T03:12:36;99136.78;;;12.13;55.49
46714;BME280;32445;51.376;10.874;2023-05-16T03:15:36;99136.03;;;12.09;55.56
46714;BME280;32445;51.376;10.874;2023-05-16T03:18:37;99136.84;;;12.11;55.59
46714;BME280;32445;51.376;10.874;2023-05-16T03:21:37;99144.75;;;12.08;55.40
46714;BME280;32445;51.376;10.874;2023-05-16T03:24:37;99146.31;;;12.12;55.39
46714;BME280;32445;51.376;10.874;2023-05-16T03:27:38;99147.19;;;12.13;55.38
46714;BME280;32445;51.376;10.874;2023-05-16T03:30:38;99154.13;;;12.12;55.89
46714;BME280;32445;51.376;10.874;2023-05-16T03:33:38;99156.63;;;12.15;55.59
46714;BME280;32445;51.376;10.874;2023-05-16T03:36:40;99164.50;;;12.14;56.04
46714;BME280;32445;51.376;10.874;2023-05-16T03:39:40;99164.38;;;12.17;55.87
46714;BME280;32445;51.376;10.874;2023-05-16T03:42:40;99163.34;;;12.21;55.56
46714;BME280;32445;51.376;10.874;2023-05-16T03:45:41;99170.84;;;12.28;55.14
46714;BME280;32445;51.376;10.874;2023-05-16T03:48:42;99176.00;;;12.30;54.94
46714;BME280;32445;51.376;10.874;2023-05-16T03:51:42;99176.06;;;12.28;55.39
46714;BME280;32445;51.376;10.874;2023-05-16T03:54:42;99168.44;;;12.24;55.57
46714;BME280;32445;51.376;10.874;2023-05-16T03:57:43;99177.19;;;12.21;55.37
46714;BME280;32445;51.376;10.874;2023-05-16T04:00:43;99179.75;;;12.23;55.43
46714;BME280;32445;51.376;10.874;2023-05-16T04:03:45;99178.84;;;12.24;55.90
46714;BME280;32445;51.376;10.874;2023-05-16T04:06:45;99184.00;;;12.25;55.74
46714;BME280;32445;51.376;10.874;2023-05-16T04:09:46;99192.81;;;12.21;55.92
46714;BME280;32445;51.376;10.874;2023-05-16T04:12:46;99196.31;;;12.20;56.30
46714;BME280;32445;51.376;10.874;2023-05-16T04:15:46;99198.78;;;12.23;56.49
46714;BME280;32445;51.376;10.874;2023-05-16T04:18:47;99209.06;;;12.28;56.20
46714;BME280;32445;51.376;10.874;2023-05-16T04:21:47;99206.38;;;12.29;56.14
46714;BME280;32445;51.376;10.874;2023-05-16T04:24:48;99213.31;;;12.29;56.48
46714;BME280;32445;51.376;10.874;2023-05-16T04:27:49;99216.91;;;12.26;56.48
46714;BME280;32445;51.376;10.874;2023-05-16T04:30:49;99216.75;;;12.31;56.52
46714;BME280;32445;51.376;10.874;2023-05-16T04:33:50;99213.91;;;12.37;56.16
46714;BME280;32445;51.376;10.874;2023-05-16T04:36:51;99221.69;;;12.37;56.24
46714;BME280;32445;51.376;10.874;2023-05-16T04:39:51;99230.31;;;12.39;55.86
46714;BME280;32445;51.376;10.874;2023-05-16T04:42:53;99226.84;;;12.39;56.27
46714;BME280;32445;51.376;10.874;2023-05-16T04:45:54;99226.00;;;12.38;56.22
46714;BME280;32445;51.376;10.874;2023-05-16T04:48:56;99233.69;;;12.41;56.03
46714;BME280;32445;51.376;10.874;2023-05-16T04:51:56;99244.72;;;12.48;55.42
46714;BME280;32445;51.376;10.874;2023-05-16T04:54:56;99244.94;;;12.42;56.08
46714;BME280;32445;51.376;10.874;2023-05-16T04:57:59;99256.28;;;12.41;56.39
46714;BME280;32445;51.376;10.874;2023-05-16T05:00:59;99256.16;;;12.44;55.85
46714;BME280;32445;51.376;10.874;2023-05-16T05:04:00;99257.84;;;12.45;55.95
46714;BME280;32445;51.376;10.874;2023-05-16T05:07:00;99268.16;;;12.48;56.44
46714;BME280;32445;51.376;10.874;2023-05-16T05:10:00;99266.59;;;12.44;56.75
46714;BME280;32445;51.376;10.874;2023-05-16T05:13:02;99263.16;;;12.42;56.80
46714;BME280;32445;51.376;10.874;2023-05-16T05:16:02;99264.88;;;12.43;56.84
46714;BME280;32445;51.376;10.874;2023-05-16T05:19:03;99276.88;;;12.47;56.85
46714;BME280;32445;51.376;10.874;2023-05-16T05:22:04;99275.72;;;12.54;55.94
46714;BME280;32445;51.376;10.874;2023-05-16T05:25:05;99279.91;;;12.58;56.40
46714;BME280;32445;51.376;10.874;2023-05-16T05:28:05;99285.13;;;12.58;56.60
46714;BME280;32445;51.376;10.874;2023-05-16T05:31:05;99286.78;;;12.61;56.34
46714;BME280;32445;51.376;10.874;2023-05-16T05:34:07;99285.06;;;12.60;56.45
46714;BME280;32445;51.376;10.874;2023-05-16T05:37:07;99286.97;;;12.55;57.44
46714;BME280;32445;51.376;10.874;2023-05-16T05:40:08;99292.03;;;12.59;56.88
46714;BME280;32445;51.376;10.874;2023-05-16T05:43:08;99301.25;;;12.68;56.37
46714;BME280;32445;51.376;10.874;2023-05-16T05:46:08;99298.72;;;12.67;56.86
46714;BME280;32445;51.376;10.874;2023-05-16T05:49:08;99300.38;;;12.68;56.35
46714;BME280;32445;51.376;10.874;2023-05-16T05:52:09;99299.50;;;12.69;57.15
46714;BME280;32445;51.376;10.874;2023-05-16T05:55:09;99299.31;;;12.73;56.63
46714;BME280;32445;51.376;10.874;2023-05-16T05:58:10;99307.81;;;12.78;55.97
46714;BME280;32445;51.376;10.874;2023-05-16T06:01:10;99306.03;;;12.79;56.51
46714;BME280;32445;51.376;10.874;2023-05-16T06:04:11;99326.59;;;12.87;56.23
46714;BME280;32445;51.376;10.874;2023-05-16T06:07:11;99319.38;;;12.93;56.00
46714;BME280;32445;51.376;10.874;2023-05-16T06:10:12;99336.72;;;12.94;55.75
46714;BME280;32445;51.376;10.874;2023-05-16T06:13:12;99334.22;;;12.91;55.83
46714;BME280;32445;51.376;10.874;2023-05-16T06:16:12;99338.34;;;12.97;55.90
46714;BME280;32445;51.376;10.874;2023-05-16T06:19:12;99339.13;;;12.99;55.89
46714;BME280;32445;51.376;10.874;2023-05-16T06:22:15;99338.34;;;12.97;55.69
46714;BME280;32445;51.376;10.874;2023-05-16T06:25:15;99332.22;;;12.98;55.39
46714;BME280;32445;51.376;10.874;2023-05-16T06:28:15;99345.16;;;13.01;55.42
46714;BME280;32445;51.376;10.874;2023-05-16T06:31:16;99348.28;;;13.09;54.92
46714;BME280;32445;51.376;10.874;2023-05-16T06:34:16;99347.25;;;13.13;55.18
46714;BME280;32445;51.376;10.874;2023-05-16T06:37:16;99346.50;;;13.11;54.69
46714;BME280;32445;51.376;10.874;2023-05-16T06:40:17;99349.81;;;13.15;54.77
46714;BME280;32445;51.376;10.874;2023-05-16T06:43:17;99347.94;;;13.19;54.68
46714;BME280;32445;51.376;10.874;2023-05-16T06:46:17;99354.13;;;13.16;54.84
46714;BME280;32445;51.376;10.874;2023-05-16T06:49:18;99361.03;;;13.17;54.47
46714;BME280;32445;51.376;10.874;2023-05-16T06:52:18;99360.13;;;13.18;54.80
46714;BME280;32445;51.376;10.874;2023-05-16T06:55:18;99362.69;;;13.20;54.82
46714;BME280;32445;51.376;10.874;2023-05-16T06:58:19;99373.16;;;13.18;54.76
46714;BME280;32445;51.376;10.874;2023-05-16T07:01:19;99377.50;;;13.18;54.40
46714;BME280;32445;51.376;10.874;2023-05-16T07:04:19;99368.53;;;13.25;54.64
46714;BME280;32445;51.376;10.874;2023-05-16T07:07:19;99368.41;;;13.28;54.27
46714;BME280;32445;51.376;10.874;2023-05-16T07:10:20;99367.59;;;13.27;54.48
46714;BME280;32445;51.376;10.874;2023-05-16T07:13:20;99370.31;;;13.24;54.69
46714;BME280;32445;51.376;10.874;2023-05-16T07:16:21;99384.06;;;13.28;53.99
46714;BME280;32445;51.376;10.874;2023-05-16T07:19:21;99392.75;;;13.28;54.17
46714;BME280;32445;51.376;10.874;2023-05-16T07:22:21;99384.94;;;13.28;54.28
46714;BME280;32445;51.376;10.874;2023-05-16T07:25:23;99386.59;;;13.29;53.89
46714;BME280;32445;51.376;10.874;2023-05-16T07:28:23;99381.38;;;13.29;53.94
46714;BME280;32445;51.376;10.874;2023-05-16T07:31:23;99382.25;;;13.30;54.00
46714;BME280;32445;51.376;10.874;2023-05-16T07:34:24;99379.38;;;13.38;53.63
46714;BME280;32445;51.376;10.874;2023-05-16T07:37:24;99377.50;;;13.41;53.57
46714;BME280;32445;51.376;10.874;2023-05-16T07:40:25;99387.75;;;13.46;53.91
46714;BME280;32445;51.376;10.874;2023-05-16T07:43:28;99384.88;;;13.52;53.35
46714;BME280;32445;51.376;10.874;2023-05-16T07:46:28;99381.31;;;13.55;53.29
46714;BME280;32445;51.376;10.874;2023-05-16T07:49:29;99383.78;;;13.58;53.12
46714;BME280;32445;51.376;10.874;2023-05-16T07:52:29;99384.53;;;13.61;53.40
46714;BME280;32445;51.376;10.874;2023-05-16T07:55:29;99390.31;;;13.68;52.63
46714;BME280;32445;51.376;10.874;2023-05-16T07:58:30;99397.97;;;13.73;53.08
46714;BME280;32445;51.376;10.874;2023-05-16T08:01:30;99397.78;;;13.77;52.74
46714;BME280;32445;51.376;10.874;2023-05-16T08:04:30;99404.75;;;13.77;52.68
46714;BME280;32445;51.376;10.874;2023-05-16T08:07:31;99404.63;;;13.80;52.04
46714;BME280;32445;51.376;10.874;2023-05-16T08:10:31;99410.56;;;13.83;51.94
46714;BME280;32445;51.376;10.874;2023-05-16T08:13:32;99409.84;;;13.80;52.08
46714;BME280;32445;51.376;10.874;2023-05-16T08:16:32;99417.75;;;13.78;52.08
46714;BME280;32445;51.376;10.874;2023-05-16T08:19:34;99418.41;;;13.83;51.65
46714;BME280;32445;51.376;10.874;2023-05-16T08:22:34;99421.81;;;13.86;51.82
46714;BME280;32445;51.376;10.874;2023-05-16T08:25:35;99426.91;;;13.89;51.61
46714;BME280;32445;51.376;10.874;2023-05-16T08:28:35;99431.44;;;13.83;52.08
46714;BME280;32445;51.376;10.874;2023-05-16T08:31:35;99435.22;;;13.76;51.81
46714;BME280;32445;51.376;10.874;2023-05-16T08:34:35;99435.28;;;13.75;51.56
46714;BME280;32445;51.376;10.874;2023-05-16T08:37:36;99439.66;;;13.74;51.62
46714;BME280;32445;51.376;10.874;2023-05-16T08:40:36;99443.16;;;13.73;51.60
46714;BME280;32445;51.376;10.874;2023-05-16T08:43:37;99441.91;;;13.61;51.40
46714;BME280;32445;51.376;10.874;2023-05-16T08:46:40;99445.53;;;13.57;51.44
46714;BME280;32445;51.376;10.874;2023-05-16T08:49:40;99448.03;;;13.60;51.68
46714;BME280;32445;51.376;10.874;2023-05-16T08:52:44;99442.03;;;13.58;51.64
46714;BME280;32445;51.376;10.874;2023-05-16T08:55:46;99444.50;;;13.61;52.51
46714;BME280;32445;51.376;10.874;2023-05-16T08:58:49;99447.75;;;13.66;51.94
46714;BME280;32445;51.376;10.874;2023-05-16T09:01:50;99438.19;;;13.67;51.95
46714;BME280;32445;51.376;10.874;2023-05-16T09:04:52;99444.06;;;13.72;52.12
46714;BME280;32445;51.376;10.874;2023-05-16T09:07:52;99449.84;;;13.80;51.81
46714;BME280;32445;51.376;10.874;2023-05-16T09:10:52;99452.25;;;13.85;50.95
46714;BME280;32445;51.376;10.874;2023-05-16T09:13:53;99454.09;;;13.83;50.99
46714;BME280;32445;51.376;10.874;2023-05-16T09:17:07;99450.59;;;13.82;50.79
46714;BME280;32445;51.376;10.874;2023-05-16T09:20:15;99465.47;;;13.80;50.34
46714;BME280;32445;51.376;10.874;2023-05-16T09:23:22;99464.16;;;13.70;50.45
46714;BME280;32445;51.376;10.874;2023-05-16T09:26:23;99455.84;;;13.60;49.92
46714;BME280;32445;51.376;10.874;2023-05-16T09:29:25;99459.22;;;13.62;50.27
46714;BME280;32445;51.376;10.874;2023-05-16T09:32:26;99456.41;;;13.69;50.60
46714;BME280;32445;51.376;10.874;2023-05-16T09:35:27;99461.75;;;13.65;50.45
46714;BME280;32445;51.376;10.874;2023-05-16T09:38:27;99467.59;;;13.71;50.33
46714;BME280;32445;51.376;10.874;2023-05-16T09:41:28;99465.88;;;13.71;49.43
46714;BME280;32445;51.376;10.874;2023-05-16T09:44:32;99458.94;;;13.70;48.82
46714;BME280;32445;51.376;10.874;2023-05-16T09:47:33;99463.19;;;13.73;49.35
46714;BME280;32445;51.376;10.874;2023-05-16T09:50:35;99465.28;;;13.85;49.25
46714;BME280;32445;51.376;10.874;2023-05-16T09:53:35;99451.03;;;13.94;48.71
46714;BME280;32445;51.376;10.874;2023-05-16T09:56:47;99456.06;;;13.98;48.82
46714;BME280;32445;51.376;10.874;2023-05-16T09:59:48;99451.31;;;14.08;48.92
46714;BME280;32445;51.376;10.874;2023-05-16T10:02:49;99458.69;;;14.19;48.29
46714;BME280;32445;51.376;10.874;2023-05-16T10:05:50;99454.84;;;14.28;48.31
46714;BME280;32445;51.376;10.874;2023-05-16T10:08:52;99457.41;;;14.50;48.48
46714;BME280;32445;51.376;10.874;2023-05-16T10:11:52;99454.94;;;14.67;47.68
46714;BME280;32445;51.376;10.874;2023-05-16T10:14:55;99453.75;;;14.75;46.99
46714;BME280;32445;51.376;10.874;2023-05-16T10:17:56;99448.25;;;14.81;46.66
46714;BME280;32445;51.376;10.874;2023-05-16T10:21:12;99452.22;;;14.90;45.84
46714;BME280;32445;51.376;10.874;2023-05-16T10:24:15;99453.31;;;15.04;45.49
46714;BME280;32445;51.376;10.874;2023-05-16T10:27:17;99462.69;;;15.28;45.22
46714;BME280;32445;51.376;10.874;2023-05-16T10:30:18;99453.63;;;15.54;44.56
46714;BME280;32445;51.376;10.874;2023-05-16T10:33:19;99461.31;;;15.76;43.29
46714;BME280;32445;51.376;10.874;2023-05-16T10:36:19;99458.19;;;15.87;42.48
46714;BME280;32445;51.376;10.874;2023-05-16T10:39:19;99460.50;;;15.93;42.04
46714;BME280;32445;51.376;10.874;2023-05-16T10:42:20;99465.28;;;16.02;41.89
46714;BME280;32445;51.376;10.874;2023-05-16T10:45:21;99462.53;;;16.05;42.20
46714;BME280;32445;51.376;10.874;2023-05-16T10:48:33;99454.97;;;16.17;40.91
46714;BME280;32445;51.376;10.874;2023-05-16T10:51:35;99461.59;;;16.24;40.81
46714;BME280;32445;51.376;10.874;2023-05-16T10:54:41;99484.69;;;16.33;40.14
46714;BME280;32445;51.376;10.874;2023-05-16T10:57:43;99478.19;;;16.42;40.15
46714;BME280;32445;51.376;10.874;2023-05-16T11:00:43;99474.84;;;16.56;40.53
46714;BME280;32445;51.376;10.874;2023-05-16T11:06:56;99473.75;;;17.11;39.77
46714;BME280;32445;51.376;10.874;2023-05-16T11:10:08;99478.09;;;17.28;38.67
46714;BME280;32445;51.376;10.874;2023-05-16T11:13:09;99489.09;;;17.35;37.63
46714;BME280;32445;51.376;10.874;2023-05-16T11:16:28;99472.94;;;17.42;38.67
46714;BME280;32445;51.376;10.874;2023-05-16T11:22:32;99479.16;;;17.88;37.11
46714;BME280;32445;51.376;10.874;2023-05-16T11:25:36;99478.22;;;18.05;37.32
46714;BME280;32445;51.376;10.874;2023-05-16T11:28:40;99477.47;;;18.33;37.30
46714;BME280;32445;51.376;10.874;2023-05-16T11:31:40;99485.09;;;18.52;36.57
46714;BME280;32445;51.376;10.874;2023-05-16T11:34:41;99485.13;;;18.66;36.33
46714;BME280;32445;51.376;10.874;2023-05-16T11:37:43;99499.41;;;18.77;36.21
46714;BME280;32445;51.376;10.874;2023-05-16T11:40:44;99485.91;;;18.83;35.94
46714;BME280;32445;51.376;10.874;2023-05-16T11:43:44;99489.59;;;18.95;36.17
46714;BME280;32445;51.376;10.874;2023-05-16T11:46:45;99481.41;;;18.99;35.13
46714;BME280;32445;51.376;10.874;2023-05-16T11:49:45;99490.53;;;18.94;36.27
46714;BME280;32445;51.376;10.874;2023-05-16T11:52:55;99494.56;;;18.99;34.71
46714;BME280;32445;51.376;10.874;2023-05-16T11:55:56;99495.25;;;19.03;34.94
46714;BME280;32445;51.376;10.874;2023-05-16T11:58:59;99497.19;;;19.14;34.00
46714;BME280;32445;51.376;10.874;2023-05-16T12:02:02;99493.94;;;19.10;32.62
46714;BME280;32445;51.376;10.874;2023-05-16T12:05:10;99486.78;;;19.12;32.76
46714;BME280;32445;51.376;10.874;2023-05-16T12:08:10;99486.41;;;19.33;33.69
46714;BME280;32445;51.376;10.874;2023-05-16T12:11:11;99492.88;;;19.42;33.29
46714;BME280;32445;51.376;10.874;2023-05-16T12:14:12;99493.41;;;19.47;32.82
46714;BME280;32445;51.376;10.874;2023-05-16T12:17:13;99488.97;;;19.62;33.29
46714;BME280;32445;51.376;10.874;2023-05-16T12:20:14;99491.19;;;19.82;33.18
46714;BME280;32445;51.376;10.874;2023-05-16T12:23:15;99487.56;;;19.98;32.17
46714;BME280;32445;51.376;10.874;2023-05-16T12:26:24;99490.28;;;19.96;30.80
46714;BME280;32445;51.376;10.874;2023-05-16T12:29:24;99491.63;;;19.89;30.31
46714;BME280;32445;51.376;10.874;2023-05-16T12:32:25;99489.34;;;19.97;31.75
46714;BME280;32445;51.376;10.874;2023-05-16T12:35:30;99487.97;;;19.92;31.20
46714;BME280;32445;51.376;10.874;2023-05-16T12:38:31;99478.81;;;19.97;31.92
46714;BME280;32445;51.376;10.874;2023-05-16T12:41:31;99484.34;;;19.93;31.19
46714;BME280;32445;51.376;10.874;2023-05-16T12:44:32;99488.59;;;19.95;31.80
46714;BME280;32445;51.376;10.874;2023-05-16T12:47:36;99487.56;;;19.98;30.73
46714;BME280;32445;51.376;10.874;2023-05-16T12:50:38;99484.59;;;20.02;30.62
46714;BME280;32445;51.376;10.874;2023-05-16T12:53:46;99498.34;;;20.08;29.57
46714;BME280;32445;51.376;10.874;2023-05-16T12:56:47;99485.38;;;20.04;30.26
46714;BME280;32445;51.376;10.874;2023-05-16T12:59:48;99480.75;;;20.21;30.71
46714;BME280;32445;51.376;10.874;2023-05-16T13:02:48;99486.06;;;20.34;30.55
46714;BME280;32445;51.376;10.874;2023-05-16T13:05:48;99485.59;;;20.27;29.55
46714;BME280;32445;51.376;10.874;2023-05-16T13:08:48;99490.38;;;20.35;30.17
46714;BME280;32445;51.376;10.874;2023-05-16T13:11:49;99496.59;;;20.34;28.92
46714;BME280;32445;51.376;10.874;2023-05-16T13:14:52;99487.97;;;20.32;29.54
46714;BME280;32445;51.376;10.874;2023-05-16T13:17:52;99494.38;;;20.28;30.01
46714;BME280;32445;51.376;10.874;2023-05-16T13:20:53;99481.81;;;20.31;29.89
46714;BME280;32445;51.376;10.874;2023-05-16T13:23:53;99486.78;;;20.36;29.53
46714;BME280;32445;51.376;10.874;2023-05-16T13:26:53;99489.63;;;20.33;28.99
46714;BME280;32445;51.376;10.874;2023-05-16T13:29:54;99492.25;;;20.33;29.11
46714;BME280;32445;51.376;10.874;2023-05-16T13:32:54;99490.19;;;20.38;28.61
46714;BME280;32445;51.376;10.874;2023-05-16T13:35:55;99496.00;;;20.43;28.49
46714;BME280;32445;51.376;10.874;2023-05-16T13:38:55;99501.16;;;20.45;29.18
46714;BME280;32445;51.376;10.874;2023-05-16T13:41:56;99508.00;;;20.47;28.98
46714;BME280;32445;51.376;10.874;2023-05-16T13:44:56;99499.91;;;20.50;27.76
46714;BME280;32445;51.376;10.874;2023-05-16T13:47:57;99513.47;;;20.44;28.51
46714;BME280;32445;51.376;10.874;2023-05-16T13:50:57;99525.19;;;20.40;27.62
46714;BME280;32445;51.376;10.874;2023-05-16T13:53:57;99513.25;;;20.34;27.80
46714;BME280;32445;51.376;10.874;2023-05-16T13:56:58;99518.44;;;20.49;27.78
46714;BME280;32445;51.376;10.874;2023-05-16T13:59:58;99512.00;;;20.53;27.43
46714;BME280;32445;51.376;10.874;2023-05-16T14:02:59;99508.88;;;20.48;26.80
46714;BME280;32445;51.376;10.874;2023-05-16T14:05:59;99508.97;;;20.46;27.76
46714;BME280;32445;51.376;10.874;2023-05-16T14:08:59;99496.31;;;20.51;26.76
46714;BME280;32445;51.376;10.874;2023-05-16T14:12:00;99502.84;;;20.58;27.02
46714;BME280;32445;51.376;10.874;2023-05-16T14:15:04;99516.47;;;20.65;26.72
46714;BME280;32445;51.376;10.874;2023-05-16T14:18:04;99512.38;;;20.74;27.29
46714;BME280;32445;51.376;10.874;2023-05-16T14:21:05;99515.03;;;20.87;28.21
46714;BME280;32445;51.376;10.874;2023-05-16T14:24:06;99517.88;;;20.97;27.32
46714;BME280;32445;51.376;10.874;2023-05-16T14:27:06;99523.59;;;21.03;27.24
46714;BME280;32445;51.376;10.874;2023-05-16T14:30:07;99527.28;;;21.14;26.69
46714;BME280;32445;51.376;10.874;2023-05-16T14:33:08;99513.63;;;21.20;26.37
46714;BME280;32445;51.376;10.874;2023-05-16T14:36:09;99520.38;;;21.24;26.32
46714;BME280;32445;51.376;10.874;2023-05-16T14:39:09;99509.59;;;21.27;26.52
46714;BME280;32445;51.376;10.874;2023-05-16T14:42:09;99511.28;;;21.41;26.85
46714;BME280;32445;51.376;10.874;2023-05-16T14:45:11;99517.72;;;21.37;26.66
46714;BME280;32445;51.376;10.874;2023-05-16T14:48:11;99519.94;;;21.30;26.50
46714;BME280;32445;51.376;10.874;2023-05-16T14:51:12;99511.81;;;21.20;26.61
46714;BME280;32445;51.376;10.874;2023-05-16T14:54:12;99529.25;;;21.10;25.68
46714;BME280;32445;51.376;10.874;2023-05-16T14:57:13;99525.69;;;20.85;25.92
46714;BME280;32445;51.376;10.874;2023-05-16T15:00:14;99528.88;;;20.90;26.94
46714;BME280;32445;51.376;10.874;2023-05-16T15:03:16;99531.50;;;21.03;27.25
46714;BME280;32445;51.376;10.874;2023-05-16T15:06:16;99533.81;;;21.08;26.77
46714;BME280;32445;51.376;10.874;2023-05-16T15:09:17;99535.59;;;21.07;26.36
46714;BME280;32445;51.376;10.874;2023-05-16T15:12:18;99536.97;;;21.13;26.41
46714;BME280;32445;51.376;10.874;2023-05-16T15:15:18;99533.72;;;21.09;26.62
46714;BME280;32445;51.376;10.874;2023-05-16T15:18:20;99535.91;;;21.16;26.71
46714;BME280;32445;51.376;10.874;2023-05-16T15:21:20;99537.81;;;21.14;26.36
46714;BME280;32445;51.376;10.874;2023-05-16T15:24:21;99536.56;;;21.06;26.25
46714;BME280;32445;51.376;10.874;2023-05-16T15:27:21;99537.72;;;21.02;27.61
46714;BME280;32445;51.376;10.874;2023-05-16T15:30:21;99538.44;;;21.17;26.49
46714;BME280;32445;51.376;10.874;2023-05-16T15:33:22;99543.50;;;21.20;25.25
46714;BME280;32445;51.376;10.874;2023-05-16T15:36:22;99536.13;;;21.13;25.03
46714;BME280;32445;51.376;10.874;2023-05-16T15:39:23;99540.47;;;21.14;26.12
46714;BME280;32445;51.376;10.874;2023-05-16T15:42:24;99539.59;;;21.26;26.68
46714;BME280;32445;51.376;10.874;2023-05-16T15:45:25;99539.38;;;21.42;26.02
46714;BME280;32445;51.376;10.874;2023-05-16T15:48:25;99533.91;;;21.32;25.11
46714;BME280;32445;51.376;10.874;2023-05-16T15:51:26;99538.22;;;21.33;25.22
46714;BME280;32445;51.376;10.874;2023-05-16T15:54:27;99541.94;;;21.31;26.09
46714;BME280;32445;51.376;10.874;2023-05-16T15:57:27;99537.94;;;21.25;25.29
46714;BME280;32445;51.376;10.874;2023-05-16T16:00:27;99536.13;;;21.25;25.88
46714;BME280;32445;51.376;10.874;2023-05-16T16:03:28;99543.09;;;21.26;26.32